createdAt,value
2018-08-25T00:01:12.907Z,16.40
2018-08-25T00:03:40.132Z,16.40
2018-08-25T00:06:07.549Z,16.40
2018-08-25T00:08:34.897Z,16.50
2018-08-25T00:11:03.259Z,16.60
2018-08-25T00:13:31.201Z,16.40
2018-08-25T00:15:59.280Z,16.40
2018-08-25T00:18:27.518Z,16.40
2018-08-25T00:20:55.594Z,16.30
2018-08-25T00:23:22.936Z,16.40
2018-08-25T00:25:51.357Z,16.50
2018-08-25T00:28:18.650Z,16.40
2018-08-25T00:31:51.349Z,16.50
2018-08-25T00:34:19.760Z,16.40
2018-08-25T00:36:47.209Z,16.20
2018-08-25T00:39:14.720Z,16.20
2018-08-25T00:41:42.175Z,16.20
2018-08-25T00:44:09.780Z,16.20
2018-08-25T00:46:37.310Z,16.20
2018-08-25T00:49:04.827Z,16.20
2018-08-25T00:51:32.422Z,16.20
2018-08-25T00:53:59.931Z,16.30
2018-08-25T00:56:27.429Z,16.20
2018-08-25T00:58:54.909Z,16.20
2018-08-25T01:01:22.409Z,16.10
2018-08-25T01:03:49.881Z,16.20
2018-08-25T01:06:17.452Z,16.20
2018-08-25T01:08:44.918Z,16.00
2018-08-25T01:11:12.515Z,16.10
2018-08-25T01:13:39.995Z,16.10
2018-08-25T01:16:07.517Z,16.00
2018-08-25T01:18:34.988Z,15.80
2018-08-25T01:21:02.454Z,15.80
2018-08-25T01:23:29.908Z,15.90
2018-08-25T01:25:57.425Z,15.80
2018-08-25T01:28:24.900Z,15.90
2018-08-25T01:30:52.361Z,16.10
2018-08-25T01:33:19.820Z,16.10
2018-08-25T01:35:47.303Z,16.20
2018-08-25T01:38:14.744Z,16.20
2018-08-25T01:40:42.188Z,16.20
2018-08-25T01:43:09.763Z,16.10
2018-08-25T01:45:37.251Z,16.00
2018-08-25T01:48:04.688Z,16.10
2018-08-25T01:50:32.201Z,16.00
2018-08-25T01:52:59.751Z,15.90
2018-08-25T01:55:27.287Z,15.90
2018-08-25T01:57:54.747Z,15.90
2018-08-25T02:00:22.305Z,15.90
2018-08-25T02:02:49.865Z,15.80
2018-08-25T02:05:17.257Z,15.90
2018-08-25T02:07:44.821Z,15.80
2018-08-25T02:10:12.382Z,15.70
2018-08-25T02:12:39.857Z,15.60
2018-08-25T02:15:07.347Z,15.60
2018-08-25T02:17:34.817Z,15.60
2018-08-25T02:20:02.267Z,15.70
2018-08-25T02:22:29.796Z,15.70
2018-08-25T02:24:57.254Z,15.70
2018-08-25T02:27:24.699Z,15.70
2018-08-25T02:29:52.128Z,15.60
2018-08-25T02:32:19.642Z,15.60
2018-08-25T02:34:47.124Z,15.70
2018-08-25T02:37:14.611Z,15.70
2018-08-25T02:39:42.108Z,15.70
2018-08-25T02:42:09.607Z,15.70
2018-08-25T02:44:37.198Z,15.60
2018-08-25T02:47:04.731Z,15.70
2018-08-25T02:49:32.282Z,15.70
2018-08-25T02:51:59.669Z,15.60
2018-08-25T02:54:27.256Z,15.50
2018-08-25T02:56:54.816Z,15.60
2018-08-25T02:59:22.252Z,15.60
2018-08-25T03:01:49.725Z,15.70
2018-08-25T03:04:17.204Z,15.60
2018-08-25T03:06:44.665Z,15.60
2018-08-25T03:09:12.456Z,15.60
2018-08-25T03:11:39.946Z,15.50
2018-08-25T03:14:07.437Z,15.30
2018-08-25T03:16:35.322Z,15.20
2018-08-25T03:19:02.760Z,15.30
2018-08-25T03:21:30.279Z,15.20
2018-08-25T03:23:57.799Z,15.30
2018-08-25T03:26:25.251Z,15.40
2018-08-25T03:28:52.721Z,15.30
2018-08-25T03:31:20.163Z,15.20
2018-08-25T03:33:47.647Z,15.40
2018-08-25T03:36:15.060Z,15.40
2018-08-25T03:38:42.479Z,15.40
2018-08-25T03:41:09.953Z,15.40
2018-08-25T03:43:37.507Z,15.30
2018-08-25T03:46:04.936Z,15.20
2018-08-25T03:48:32.378Z,15.20
2018-08-25T03:50:59.883Z,15.20
2018-08-25T03:53:27.338Z,15.20
2018-08-25T03:55:54.967Z,15.10
2018-08-25T03:58:22.480Z,14.80
2018-08-25T04:00:50.344Z,14.50
2018-08-25T04:03:17.817Z,14.20
2018-08-25T04:05:45.396Z,13.80
2018-08-25T04:08:12.872Z,13.60
2018-08-25T04:10:40.384Z,13.30
2018-08-25T04:13:07.841Z,13.20
2018-08-25T04:15:35.292Z,13.00
2018-08-25T04:18:02.754Z,12.90
2018-08-25T04:20:30.238Z,12.80
2018-08-25T04:22:57.759Z,12.80
2018-08-25T04:25:25.209Z,12.90
2018-08-25T04:27:52.645Z,12.80
2018-08-25T04:30:20.198Z,12.70
2018-08-25T04:32:47.752Z,12.60
2018-08-25T04:35:15.196Z,12.50
2018-08-25T04:37:42.648Z,12.50
2018-08-25T04:40:10.136Z,12.50
2018-08-25T04:42:37.588Z,12.50
2018-08-25T04:45:05.333Z,12.60
2018-08-25T04:47:32.799Z,12.70
2018-08-25T04:50:00.269Z,12.60
2018-08-25T04:52:27.771Z,12.60
2018-08-25T04:54:55.305Z,12.60
2018-08-25T04:57:22.891Z,12.60
2018-08-25T04:59:50.365Z,12.60
2018-08-25T05:02:17.804Z,12.70
2018-08-25T05:04:45.377Z,12.70
2018-08-25T05:07:12.889Z,12.70
2018-08-25T05:09:40.321Z,12.60
2018-08-25T05:12:07.761Z,12.60
2018-08-25T05:14:35.260Z,12.70
2018-08-25T05:17:02.749Z,12.70
2018-08-25T05:19:30.196Z,12.60
2018-08-25T05:21:57.634Z,12.60
2018-08-25T05:24:25.048Z,12.70
2018-08-25T05:26:52.476Z,12.80
2018-08-25T05:29:19.923Z,12.70
2018-08-25T05:31:47.426Z,12.70
2018-08-25T05:34:14.963Z,12.60
2018-08-25T05:36:42.461Z,12.50
2018-08-25T05:39:10.542Z,12.50
2018-08-25T05:41:38.019Z,12.50
2018-08-25T05:44:05.507Z,12.60
2018-08-25T05:46:33.018Z,12.60
2018-08-25T05:49:00.552Z,12.60
2018-08-25T05:51:28.044Z,12.70
2018-08-25T05:53:55.491Z,12.60
2018-08-25T05:56:23.036Z,12.60
2018-08-25T05:58:50.492Z,12.70
2018-08-25T06:01:17.944Z,12.80
2018-08-25T06:03:46.296Z,12.90
2018-08-25T06:06:13.868Z,12.90
2018-08-25T06:08:41.372Z,13.10
2018-08-25T06:11:08.824Z,13.40
2018-08-25T06:13:36.361Z,13.60
2018-08-25T06:16:03.791Z,13.50
2018-08-25T06:18:31.314Z,13.50
2018-08-25T06:21:06.558Z,13.80
2018-08-25T06:23:33.988Z,14.00
2018-08-25T06:26:01.516Z,14.10
2018-08-25T06:28:29.015Z,14.00
2018-08-25T06:30:56.561Z,13.90
2018-08-25T06:33:24.080Z,13.60
2018-08-25T06:35:51.598Z,13.60
2018-08-25T06:38:19.003Z,13.60
2018-08-25T06:40:46.644Z,13.60
2018-08-25T06:43:14.099Z,13.70
2018-08-25T06:45:41.670Z,13.70
2018-08-25T06:48:09.089Z,13.70
2018-08-25T06:50:36.587Z,13.60
2018-08-25T06:53:06.367Z,13.50
2018-08-25T06:55:38.648Z,13.40
2018-08-25T06:58:06.234Z,13.50
2018-08-25T07:00:33.881Z,13.40
2018-08-25T07:03:01.451Z,13.50
2018-08-25T07:05:29.440Z,13.40
2018-08-25T07:07:56.968Z,13.50
2018-08-25T07:10:24.412Z,13.50
2018-08-25T07:12:51.916Z,13.50
2018-08-25T07:15:20.392Z,13.40
2018-08-25T07:17:47.968Z,13.30
2018-08-25T07:20:15.491Z,13.30
2018-08-25T07:22:42.938Z,13.30
2018-08-25T07:25:10.553Z,13.20
2018-08-25T07:27:40.013Z,13.30
2018-08-25T07:30:08.513Z,13.40
2018-08-25T07:32:36.605Z,13.60
2018-08-25T07:35:15.117Z,13.70
2018-08-25T07:37:42.435Z,13.80
2018-08-25T07:40:11.811Z,13.90
2018-08-25T07:42:39.073Z,13.90
2018-08-25T07:45:06.684Z,14.00
2018-08-25T07:47:34.420Z,13.90
2018-08-25T07:50:02.736Z,14.00
2018-08-25T07:52:31.167Z,14.10
2018-08-25T07:54:59.529Z,14.00
2018-08-25T07:57:26.895Z,13.90
2018-08-25T07:59:54.162Z,13.80
2018-08-25T08:02:21.413Z,13.70
2018-08-25T08:04:48.747Z,13.70
2018-08-25T08:07:17.164Z,13.70
2018-08-25T08:09:44.728Z,13.70
2018-08-25T08:12:12.237Z,13.60
2018-08-25T08:14:39.645Z,13.50
2018-08-25T08:17:07.197Z,13.50
2018-08-25T08:19:34.668Z,13.40
2018-08-25T08:22:03.163Z,13.60
2018-08-25T08:24:30.691Z,14.00
2018-08-25T08:26:58.172Z,14.30
2018-08-25T08:29:25.691Z,14.50
2018-08-25T08:31:53.207Z,14.60
2018-08-25T08:34:20.666Z,14.60
2018-08-25T08:36:48.280Z,14.80
2018-08-25T08:39:15.715Z,15.30
2018-08-25T08:41:43.187Z,15.70
2018-08-25T08:44:11.742Z,15.60
2018-08-25T08:46:39.196Z,15.60
2018-08-25T08:49:07.503Z,15.60
2018-08-25T08:51:36.991Z,15.50
2018-08-25T08:54:04.677Z,15.40
2018-08-25T08:56:35.896Z,15.10
2018-08-25T08:59:04.452Z,14.90
2018-08-25T09:01:32.443Z,14.80
2018-08-25T09:03:59.987Z,14.70
2018-08-25T09:06:27.424Z,14.60
2018-08-25T09:08:54.878Z,14.50
2018-08-25T09:11:22.407Z,14.40
2018-08-25T09:13:49.831Z,14.30
2018-08-25T09:16:17.623Z,14.20
2018-08-25T09:18:45.067Z,14.00
2018-08-25T09:21:12.517Z,14.00
2018-08-25T09:23:40.040Z,14.10
2018-08-25T09:26:07.448Z,14.40
2018-08-25T09:28:34.992Z,14.70
2018-08-25T09:31:02.551Z,14.90
2018-08-25T09:33:30.043Z,15.10
2018-08-25T09:35:58.722Z,15.30
2018-08-25T09:38:25.820Z,15.40
2018-08-25T09:40:53.140Z,15.50
2018-08-25T09:43:20.407Z,15.50
2018-08-25T09:45:47.862Z,15.50
2018-08-25T09:48:15.445Z,15.50
2018-08-25T09:50:42.979Z,15.60
2018-08-25T09:53:10.546Z,15.60
2018-08-25T09:55:38.160Z,15.40
2018-08-25T09:58:06.705Z,15.30
2018-08-25T10:00:34.253Z,15.20
2018-08-25T10:03:01.751Z,15.10
2018-08-25T10:05:29.284Z,15.10
2018-08-25T10:07:57.919Z,15.00
2018-08-25T10:10:26.542Z,14.80
2018-08-25T10:12:54.513Z,14.80
2018-08-25T10:15:26.586Z,14.80
2018-08-25T10:17:54.648Z,15.10
2018-08-25T10:20:23.019Z,15.30
2018-08-25T10:22:50.443Z,15.60
2018-08-25T10:25:17.782Z,15.90
2018-08-25T10:27:45.247Z,16.20
2018-08-25T10:30:12.756Z,16.40
2018-08-25T10:32:40.225Z,16.30
2018-08-25T10:35:07.759Z,16.40
2018-08-25T10:37:35.233Z,16.80
2018-08-25T10:40:02.894Z,17.30
2018-08-25T10:42:30.350Z,17.60
2018-08-25T10:44:57.832Z,17.50
2018-08-25T10:47:25.317Z,17.50
2018-08-25T10:49:52.757Z,18.00
2018-08-25T10:52:20.236Z,18.30
2018-08-25T10:54:47.770Z,18.20
2018-08-25T10:57:15.321Z,17.90
2018-08-25T10:59:42.812Z,17.90
2018-08-25T11:02:16.776Z,18.10
2018-08-25T11:04:44.319Z,18.70
2018-08-25T11:07:11.896Z,19.20
2018-08-25T11:09:39.342Z,19.20
2018-08-25T11:12:07.576Z,19.00
2018-08-25T11:14:36.124Z,18.90
2018-08-25T11:17:03.707Z,19.00
2018-08-25T11:19:31.140Z,19.30
2018-08-25T11:21:58.571Z,19.30
2018-08-25T11:24:26.057Z,19.10
2018-08-25T11:26:53.600Z,19.00
2018-08-25T11:29:21.189Z,19.30
2018-08-25T11:31:48.620Z,19.70
2018-08-25T11:34:16.075Z,20.20
2018-08-25T11:36:43.575Z,20.90
2018-08-25T11:39:11.360Z,21.30
2018-08-25T11:41:38.993Z,21.10
2018-08-25T11:44:06.453Z,20.70
2018-08-25T11:46:33.883Z,20.50
2018-08-25T11:49:01.359Z,20.00
2018-08-25T11:51:28.796Z,19.40
2018-08-25T11:53:56.484Z,19.10
2018-08-25T11:56:24.070Z,18.60
2018-08-25T11:58:51.514Z,18.20
2018-08-25T12:01:18.916Z,17.80
2018-08-25T12:03:46.345Z,17.60
2018-08-25T12:06:13.831Z,17.30
2018-08-25T12:08:41.288Z,17.20
2018-08-25T12:11:09.733Z,17.10
2018-08-25T12:13:37.228Z,17.10
2018-08-25T12:16:04.756Z,17.10
2018-08-25T12:18:32.252Z,17.20
2018-08-25T12:20:59.696Z,17.30
2018-08-25T12:23:27.182Z,17.80
2018-08-25T12:25:54.665Z,18.40
2018-08-25T12:28:22.151Z,19.00
2018-08-25T12:30:50.587Z,19.70
2018-08-25T12:33:18.459Z,20.30
2018-08-25T12:35:45.917Z,20.40
2018-08-25T12:38:13.372Z,20.60
2018-08-25T12:40:40.808Z,20.40
2018-08-25T12:43:08.354Z,20.80
2018-08-25T12:45:36.428Z,21.00
2018-08-25T12:48:03.771Z,20.40
2018-08-25T12:50:31.228Z,20.10
2018-08-25T12:52:58.617Z,19.80
2018-08-25T12:55:26.126Z,19.70
2018-08-25T12:57:53.556Z,20.10
2018-08-25T13:00:21.028Z,20.40
2018-08-25T13:02:48.521Z,20.30
2018-08-25T13:05:16.043Z,20.70
2018-08-25T13:07:43.482Z,21.10
2018-08-25T13:10:11.012Z,21.30
2018-08-25T13:12:38.583Z,21.40
2018-08-25T13:15:06.487Z,21.50
2018-08-25T13:17:33.999Z,21.40
2018-08-25T13:20:01.571Z,21.50
2018-08-25T13:22:29.051Z,21.30
2018-08-25T13:24:56.525Z,21.00
2018-08-25T13:27:23.955Z,21.10
2018-08-25T13:29:51.513Z,21.10
2018-08-25T13:32:18.966Z,20.90
2018-08-25T13:34:46.384Z,21.10
2018-08-25T13:37:13.913Z,21.10
2018-08-25T13:39:41.330Z,20.90
2018-08-25T13:42:08.922Z,20.90
2018-08-25T13:44:36.376Z,20.90
2018-08-25T13:47:03.890Z,20.90
2018-08-25T13:49:31.459Z,20.60
2018-08-25T13:51:58.908Z,20.40
2018-08-25T13:54:26.423Z,20.40
2018-08-25T13:56:53.924Z,20.50
2018-08-25T13:59:21.345Z,20.80
2018-08-25T14:01:48.780Z,21.00
2018-08-25T14:04:16.223Z,20.50
2018-08-25T14:06:43.661Z,20.10
2018-08-25T14:09:11.116Z,19.90
2018-08-25T14:11:38.628Z,19.80
2018-08-25T14:14:06.057Z,19.60
2018-08-25T14:16:33.509Z,19.20
2018-08-25T14:19:01.132Z,18.80
2018-08-25T14:21:28.547Z,18.60
2018-08-25T14:23:55.964Z,18.40
2018-08-25T14:26:23.364Z,18.00
2018-08-25T14:28:50.790Z,17.80
2018-08-25T14:31:18.239Z,17.70
2018-08-25T14:33:45.564Z,17.50
2018-08-25T14:36:13.035Z,17.40
2018-08-25T14:38:40.427Z,17.40
2018-08-25T14:41:07.791Z,17.40
2018-08-25T14:43:35.224Z,17.30
2018-08-25T14:46:02.624Z,17.30
2018-08-25T14:48:30.035Z,17.30
2018-08-25T14:50:57.509Z,17.40
2018-08-25T14:53:24.879Z,17.50
2018-08-25T14:55:52.259Z,17.30
2018-08-25T14:58:20.819Z,17.20
2018-08-25T15:00:49.372Z,17.20
2018-08-25T15:03:16.660Z,17.20
2018-08-25T15:05:44.075Z,17.30
2018-08-25T15:08:11.447Z,17.40
2018-08-25T15:10:38.812Z,17.60
2018-08-25T15:13:07.189Z,17.80
2018-08-25T15:15:34.571Z,18.00
2018-08-25T15:18:01.955Z,18.20
2018-08-25T15:20:30.601Z,18.40
2018-08-25T15:22:58.124Z,18.50
2018-08-25T15:25:26.606Z,18.70
2018-08-25T15:27:53.943Z,18.80
2018-08-25T15:30:21.424Z,19.00
2018-08-25T15:32:48.946Z,19.00
2018-08-25T15:35:16.400Z,19.00
2018-08-25T15:37:43.814Z,19.00
2018-08-25T15:40:11.180Z,19.00
2018-08-25T15:42:38.524Z,19.00
2018-08-25T15:45:05.908Z,19.00
2018-08-25T15:47:33.303Z,19.00
2018-08-25T15:50:00.856Z,19.00
2018-08-25T15:52:28.252Z,19.00
2018-08-25T15:54:55.628Z,18.80
2018-08-25T15:57:23.049Z,18.60
2018-08-25T15:59:50.502Z,18.60
2018-08-25T16:02:18.983Z,18.80
2018-08-25T16:04:46.384Z,18.80
2018-08-25T16:07:13.776Z,18.50
2018-08-25T16:09:42.385Z,18.50
2018-08-25T16:12:10.027Z,18.60
2018-08-25T16:14:37.469Z,18.50
2018-08-25T16:17:04.995Z,18.50
2018-08-25T16:19:32.595Z,18.50
2018-08-25T16:21:59.876Z,18.60
2018-08-25T16:24:27.226Z,18.50
2018-08-25T16:26:54.615Z,18.50
2018-08-25T16:29:22.084Z,18.40
2018-08-25T16:31:49.531Z,18.50
2018-08-25T16:34:16.910Z,18.50
2018-08-25T16:36:44.291Z,18.40
2018-08-25T16:39:11.724Z,18.40
2018-08-25T16:41:39.133Z,18.40
2018-08-25T16:44:06.449Z,18.30
2018-08-25T16:46:33.835Z,18.30
2018-08-25T16:49:01.280Z,18.20
2018-08-25T16:51:29.136Z,18.20
2018-08-25T16:53:56.540Z,18.10
2018-08-25T16:56:23.928Z,18.20
2018-08-25T16:58:51.327Z,18.10
2018-08-25T17:01:18.810Z,18.10
2018-08-25T17:03:46.197Z,18.00
2018-08-25T17:06:13.577Z,17.90
2018-08-25T17:08:41.018Z,18.00
2018-08-25T17:11:08.370Z,18.00
2018-08-25T17:13:35.763Z,18.10
2018-08-25T17:16:03.224Z,18.10
2018-08-25T17:18:30.572Z,18.00
2018-08-25T17:20:58.026Z,17.80
2018-08-25T17:23:25.416Z,17.70
2018-08-25T17:25:52.876Z,17.40
2018-08-25T17:28:20.372Z,17.20
2018-08-25T17:30:47.894Z,17.20
2018-08-25T17:33:15.335Z,17.00
2018-08-25T17:35:42.684Z,16.80
2018-08-25T17:38:10.138Z,16.90
2018-08-25T17:40:37.625Z,16.90
2018-08-25T17:43:05.091Z,17.00
2018-08-25T17:45:32.608Z,17.00
2018-08-25T17:48:00.045Z,17.00
2018-08-25T17:50:27.557Z,16.90
2018-08-25T17:52:55.544Z,16.90
2018-08-25T17:55:22.958Z,16.90
2018-08-25T17:57:50.465Z,16.90
2018-08-25T18:00:17.943Z,16.90
2018-08-25T18:02:45.388Z,16.90
2018-08-25T18:05:13.172Z,17.00
2018-08-25T18:07:40.908Z,16.90
2018-08-25T18:10:08.515Z,16.90
2018-08-25T18:12:36.025Z,16.90
2018-08-25T18:15:03.754Z,16.70
2018-08-25T18:17:31.983Z,16.80
2018-08-25T18:19:59.413Z,16.70
2018-08-25T18:22:26.972Z,16.70
2018-08-25T18:24:54.526Z,16.70
2018-08-25T18:27:21.952Z,16.60
2018-08-25T18:29:49.399Z,16.60
2018-08-25T18:32:16.768Z,16.50
2018-08-25T18:34:44.209Z,16.50
2018-08-25T18:37:11.669Z,16.40
2018-08-25T18:39:38.991Z,16.40
2018-08-25T18:42:06.491Z,16.40
2018-08-25T18:44:33.934Z,16.30
2018-08-25T18:47:01.390Z,16.20
2018-08-25T18:49:29.896Z,16.10
2018-08-25T18:51:57.315Z,16.10
2018-08-25T18:54:24.774Z,16.20
2018-08-25T18:56:52.178Z,16.10
2018-08-25T18:59:19.608Z,15.90
2018-08-25T19:01:47.089Z,15.90
2018-08-25T19:04:14.449Z,15.80
2018-08-25T19:06:41.905Z,15.70
2018-08-25T19:09:09.512Z,15.60
2018-08-25T19:11:36.876Z,15.50
2018-08-25T19:14:05.518Z,15.60
2018-08-25T19:16:34.991Z,15.50
2018-08-25T19:19:02.467Z,15.40
2018-08-25T19:21:33.061Z,15.40
2018-08-25T19:24:01.515Z,15.40
2018-08-25T19:26:29.085Z,15.30
2018-08-25T19:28:56.627Z,15.30
2018-08-25T19:31:24.078Z,15.40
2018-08-25T19:33:51.581Z,15.30
2018-08-25T19:36:19.057Z,15.30
2018-08-25T19:38:46.608Z,15.20
2018-08-25T19:41:14.221Z,15.30
2018-08-25T19:43:42.065Z,15.30
2018-08-25T19:46:11.638Z,15.30
2018-08-25T19:48:39.219Z,15.30
2018-08-25T19:51:06.695Z,15.30
2018-08-25T19:53:34.301Z,15.30
2018-08-25T19:56:03.187Z,15.30
2018-08-25T19:58:30.807Z,15.30
2018-08-25T20:00:58.461Z,15.20
2018-08-25T20:03:25.923Z,15.20
2018-08-25T20:05:53.448Z,15.10
2018-08-25T20:08:22.995Z,15.00
2018-08-25T20:10:50.261Z,14.80
2018-08-25T20:13:17.589Z,14.80
2018-08-25T20:15:44.944Z,14.80
2018-08-25T20:18:12.113Z,14.80
2018-08-25T20:20:39.569Z,14.70
2018-08-25T20:23:07.009Z,14.60
2018-08-25T20:25:35.527Z,14.60
2018-08-25T20:28:02.936Z,14.60
2018-08-25T20:30:30.311Z,14.40
2018-08-25T20:32:57.644Z,14.40
2018-08-25T20:35:24.908Z,14.40
2018-08-25T20:37:52.185Z,14.40
2018-08-25T20:40:19.580Z,14.30
2018-08-25T20:42:46.980Z,14.30
2018-08-25T20:45:14.404Z,14.30
2018-08-25T20:47:42.960Z,14.30
2018-08-25T20:50:10.301Z,14.30
2018-08-25T20:52:38.492Z,14.30
2018-08-25T20:55:05.852Z,14.30
2018-08-25T20:57:33.464Z,14.30
2018-08-25T21:00:04.684Z,14.30
2018-08-25T21:02:32.195Z,14.30
2018-08-25T21:05:00.692Z,14.30
2018-08-25T21:07:28.073Z,14.10
2018-08-25T21:09:55.308Z,13.90
2018-08-25T21:12:22.718Z,13.90
2018-08-25T21:14:50.151Z,13.90
2018-08-25T21:17:18.681Z,13.90
2018-08-25T21:19:46.051Z,13.90
2018-08-25T21:22:13.749Z,13.90
2018-08-25T21:24:41.000Z,13.80
2018-08-25T21:27:08.316Z,13.70
2018-08-25T21:29:36.188Z,13.60
2018-08-25T21:32:03.540Z,13.60
2018-08-25T21:34:31.820Z,13.70
2018-08-25T21:37:01.132Z,13.70
2018-08-25T21:39:32.659Z,13.60
2018-08-25T21:41:59.914Z,13.60
2018-08-25T21:44:27.167Z,13.70
2018-08-25T21:46:54.468Z,13.70
2018-08-25T21:49:21.702Z,13.70
2018-08-25T21:51:50.969Z,13.70
2018-08-25T21:54:18.230Z,13.70
2018-08-25T21:56:45.483Z,13.70
2018-08-25T21:59:12.711Z,13.60
2018-08-25T22:01:40.152Z,13.40
2018-08-25T22:04:08.636Z,13.40
2018-08-25T22:06:37.000Z,13.40
2018-08-25T22:09:07.086Z,13.30
2018-08-25T22:11:34.352Z,13.30
2018-08-25T22:14:01.944Z,13.30
2018-08-25T22:16:32.228Z,13.30
2018-08-25T22:18:59.511Z,13.30
2018-08-25T22:21:27.000Z,13.30
2018-08-25T22:23:55.283Z,13.30
2018-08-25T22:26:23.115Z,13.30
2018-08-25T22:28:50.365Z,13.30
2018-08-25T22:31:17.683Z,13.30
2018-08-25T22:33:44.924Z,13.30
2018-08-25T22:36:12.152Z,13.20
2018-08-25T22:38:42.485Z,13.30
2018-08-25T22:41:09.755Z,13.20
2018-08-25T22:43:37.272Z,13.20
2018-08-25T22:46:06.372Z,13.20
2018-08-25T22:48:35.788Z,13.20
2018-08-25T22:51:03.288Z,13.20
2018-08-25T22:53:31.772Z,13.20
2018-08-25T22:56:00.118Z,13.30
2018-08-25T22:58:27.456Z,13.30
2018-08-25T23:00:54.780Z,13.30
2018-08-25T23:03:22.048Z,13.30
2018-08-25T23:05:49.330Z,13.30
2018-08-25T23:08:16.659Z,13.30
2018-08-25T23:10:44.163Z,13.20
2018-08-25T23:13:11.397Z,13.30
2018-08-25T23:15:38.739Z,13.20
2018-08-25T23:18:06.095Z,13.10
2018-08-25T23:20:33.340Z,13.10
2018-08-25T23:23:00.572Z,13.00
2018-08-25T23:25:27.735Z,13.00
2018-08-25T23:27:54.908Z,12.90
2018-08-25T23:30:22.834Z,12.90
2018-08-25T23:32:50.869Z,12.80
2018-08-25T23:35:19.216Z,12.80
2018-08-25T23:37:47.114Z,12.80
2018-08-25T23:40:14.457Z,12.90
2018-08-25T23:42:41.756Z,12.80
2018-08-25T23:45:09.171Z,12.80
2018-08-25T23:47:36.559Z,12.90
2018-08-25T23:50:04.040Z,12.90
2018-08-25T23:52:35.289Z,12.90
2018-08-25T23:55:03.664Z,12.80
2018-08-25T23:57:30.840Z,12.80
2018-08-25T23:59:58.082Z,12.80
